Time;durP1;ratioP1;P1;durP2;ratioP2;P2;SDS_P1;SDS_P2;PMS_P1;PMS_P2;Temp;Humidity;BMP_temperature;BMP_pressure;BME280_temperature;BME280_humidity;BME280_pressure;Samples;Min_cycle;Max_cycle;Signal;HPM_P1;HPM_P2
2022/12/01 00:01:31;;;;;;;150.43;72.30;;;4.30;95.50;;;;;;6166728;23;20184;-93
2022/12/01 00:03:57;;;;;;;152.07;72.07;;;4.30;95.50;;;;;;6165391;23;20181;-93
2022/12/01 00:06:22;;;;;;;143.53;72.07;;;4.30;95.50;;;;;;6170778;23;20172;-93
2022/12/01 00:11:36;;;;;;;147.97;71.80;;;4.30;95.50;;;;;;6165734;23;20155;-93
2022/12/01 00:14:02;;;;;;;148.10;73.30;;;4.30;95.50;;;;;;6165510;23;20160;-93
2022/12/01 00:16:28;;;;;;;151.17;69.83;;;4.30;95.50;;;;;;6167275;23;20623;-93
2022/12/01 00:18:55;;;;;;;145.40;71.97;;;4.30;95.50;;;;;;6166212;23;20181;-92
2022/12/01 00:21:23;;;;;;;153.63;74.47;;;4.30;95.50;;;;;;6164513;23;20184;-92
2022/12/01 00:23:50;;;;;;;142.73;71.80;;;4.30;95.50;;;;;;6161982;23;20161;-93
2022/12/01 00:26:17;;;;;;;156.73;75.27;;;4.30;95.50;;;;;;6166397;23;20638;-93
2022/12/01 00:28:43;;;;;;;155.53;75.03;;;4.30;95.50;;;;;;6170726;23;20175;-93
2022/12/01 00:31:11;;;;;;;146.73;72.37;;;4.30;95.50;;;;;;6171002;23;20199;-93
2022/12/01 00:33:38;;;;;;;147.10;73.10;;;4.30;95.50;;;;;;6170948;23;20159;-93
2022/12/01 00:36:04;;;;;;;147.73;72.90;;;4.30;95.40;;;;;;6173063;23;20160;-92
2022/12/01 00:38:30;;;;;;;138.93;70.60;;;4.30;95.50;;;;;;6172219;23;20190;-93
2022/12/01 00:40:56;;;;;;;143.10;73.07;;;4.30;95.50;;;;;;6166515;23;20635;-93
2022/12/01 00:43:23;;;;;;;145.33;72.70;;;4.30;95.50;;;;;;6172368;23;20156;-93
2022/12/01 00:45:49;;;;;;;153.10;73.23;;;4.30;95.40;;;;;;6166436;23;20203;-93
2022/12/01 00:48:15;;;;;;;140.67;72.67;;;4.30;95.40;;;;;;6164041;23;20246;-93
2022/12/01 00:50:41;;;;;;;148.37;71.10;;;4.30;95.40;;;;;;6162062;23;20156;-92
2022/12/01 00:53:06;;;;;;;141.30;71.40;;;4.30;95.40;;;;;;6161445;23;20611;-91
2022/12/01 00:55:32;;;;;;;142.40;73.13;;;4.30;95.40;;;;;;6162697;23;20184;-92
2022/12/01 00:57:57;;;;;;;138.00;70.77;;;4.30;95.40;;;;;;6161823;23;20250;-92
2022/12/01 01:00:23;;;;;;;142.80;68.80;;;4.30;95.40;;;;;;6161642;23;20213;-92
2022/12/01 01:02:49;;;;;;;153.53;74.60;;;4.30;95.40;;;;;;6161497;23;20465;-92
2022/12/01 01:05:14;;;;;;;143.73;69.30;;;4.30;95.40;;;;;;6161963;23;20146;-92
2022/12/01 01:07:40;;;;;;;142.43;73.50;;;4.30;95.40;;;;;;6165061;23;20164;-93
2022/12/01 01:10:09;;;;;;;149.20;73.97;;;4.30;95.40;;;;;;6167280;23;20160;-92
2022/12/01 01:12:35;;;;;;;133.60;68.73;;;4.20;95.40;;;;;;6164839;23;20172;-92
2022/12/01 01:15:01;;;;;;;140.00;72.00;;;4.20;95.40;;;;;;6172352;23;20157;-93
2022/12/01 01:17:31;;;;;;;147.67;74.00;;;4.20;95.40;;;;;;6178215;23;20178;-93
2022/12/01 01:36:18;;;;;;;140.27;71.33;;;4.30;95.30;;;;;;6171830;23;20208;-94
2022/12/01 01:38:44;;;;;;;135.77;69.37;;;4.30;95.30;;;;;;6141265;23;20271;-93
2022/12/01 01:41:11;;;;;;;135.20;72.23;;;4.30;95.30;;;;;;6141618;23;20245;-93
2022/12/01 01:43:46;;;;;;;137.67;71.70;;;4.30;95.30;;;;;;6142360;23;20180;-93
2022/12/01 01:46:23;;;;;;;131.57;68.47;;;4.20;95.30;;;;;;6141127;23;20160;-94
2022/12/01 01:48:53;;;;;;;143.17;69.30;;;4.20;95.30;;;;;;6142122;23;20180;-93
2022/12/01 01:51:24;;;;;;;147.73;73.87;;;4.30;95.30;;;;;;6142041;23;20164;-93
2022/12/01 01:53:53;;;;;;;136.03;70.20;;;4.20;95.30;;;;;;6141925;23;20213;-92
2022/12/01 01:56:20;;;;;;;136.03;71.63;;;4.20;95.30;;;;;;6141462;23;20180;-92
2022/12/01 01:58:46;;;;;;;148.93;71.03;;;4.20;95.30;;;;;;6139081;23;20212;-92
2022/12/01 02:01:11;;;;;;;143.43;73.67;;;4.20;95.30;;;;;;6140392;23;20188;-93
2022/12/01 02:03:39;;;;;;;133.77;69.73;;;4.20;95.30;;;;;;6138935;23;20175;-93
2022/12/01 02:06:07;;;;;;;138.43;71.97;;;4.20;95.30;;;;;;6140424;23;20164;-92
2022/12/01 02:08:34;;;;;;;;;;;4.20;95.30;;;;;;6142188;23;20180;-93
2022/12/01 02:11:18;;;;;;;137.60;70.57;;;4.20;95.30;;;;;;6140078;23;25055;-94
2022/12/01 02:14:00;;;;;;;137.20;71.80;;;4.20;95.30;;;;;;6141502;23;20230;-93
2022/12/01 02:16:50;;;;;;;143.77;70.73;;;4.20;95.30;;;;;;6142093;23;20582;-92
2022/12/01 02:19:25;;;;;;;135.30;70.30;;;4.20;95.30;;;;;;6141681;23;20185;-93
2022/12/01 02:22:13;;;;;;;137.50;68.80;;;4.20;95.30;;;;;;6139009;23;20176;-93
2022/12/01 02:24:57;;;;;;;138.93;71.93;;;4.20;95.30;;;;;;6140616;23;20231;-93
2022/12/01 02:27:32;;;;;;;140.03;70.23;;;4.20;95.30;;;;;;6140666;23;20149;-93
2022/12/01 02:30:15;;;;;;;146.47;72.67;;;4.20;95.20;;;;;;6140392;23;20173;-93
2022/12/01 02:32:53;;;;;;;141.50;71.43;;;4.20;95.30;;;;;;6141290;23;20149;-93
2022/12/01 02:35:32;;;;;;;143.53;72.00;;;4.20;95.30;;;;;;6151389;23;20615;-93
2022/12/01 02:38:27;;;;;;;135.00;69.43;;;4.20;95.20;;;;;;6195563;23;20152;-93
2022/12/01 02:41:23;;;;;;;137.07;68.43;;;4.20;95.20;;;;;;6181612;23;20222;-93
2022/12/01 02:44:13;;;;;;;133.20;70.00;;;4.20;95.30;;;;;;6193983;23;20488;-92
2022/12/01 02:46:45;;;;;;;135.47;69.23;;;4.20;95.20;;;;;;6194541;23;20592;-93
2022/12/01 02:49:19;;;;;;;138.87;68.73;;;4.20;95.20;;;;;;6193180;23;20262;-93
2022/12/01 02:51:46;;;;;;;133.23;68.73;;;4.20;95.20;;;;;;6193818;23;20158;-93
2022/12/01 02:54:13;;;;;;;134.47;72.50;;;4.20;95.20;;;;;;6195425;23;20167;-93
2022/12/01 02:56:39;;;;;;;129.00;70.43;;;4.20;95.20;;;;;;6194771;23;20163;-92
2022/12/01 02:59:09;;;;;;;133.53;71.67;;;4.10;95.20;;;;;;6194889;23;20187;-93
2022/12/01 03:01:45;;;;;;;130.10;69.77;;;4.20;95.20;;;;;;6194856;23;20207;-93
2022/12/01 03:04:32;;;;;;;131.33;67.33;;;4.20;95.20;;;;;;6195228;23;20581;-93
2022/12/01 03:07:05;;;;;;;133.03;68.63;;;4.10;95.20;;;;;;6195255;23;20147;-93
2022/12/01 03:09:45;;;;;;;138.03;69.17;;;4.10;95.20;;;;;;6194116;23;20232;-92
2022/12/01 03:12:35;;;;;;;134.77;68.33;;;4.10;95.20;;;;;;6194663;23;20167;-93
2022/12/01 03:15:23;;;;;;;132.23;67.73;;;4.10;95.20;;;;;;6193484;23;20149;-93
2022/12/01 03:18:02;;;;;;;134.10;69.00;;;4.10;95.20;;;;;;6194633;23;20164;-92
2022/12/01 03:20:40;;;;;;;142.03;68.40;;;4.10;95.10;;;;;;6194184;23;20611;-92
2022/12/01 03:23:15;;;;;;;134.23;69.17;;;4.10;95.20;;;;;;6195636;23;20167;-93
2022/12/01 03:25:45;;;;;;;132.73;69.10;;;4.10;95.10;;;;;;6193630;23;20147;-92
2022/12/01 03:28:14;;;;;;;140.30;68.67;;;4.10;95.20;;;;;;6194255;23;20176;-92
2022/12/01 03:30:45;;;;;;;136.20;69.10;;;4.10;95.20;;;;;;6193873;23;20172;-92
2022/12/01 03:33:21;;;;;;;139.57;69.33;;;4.00;95.20;;;;;;6194989;23;20156;-92
2022/12/01 03:35:53;;;;;;;136.33;70.83;;;4.00;95.20;;;;;;6196402;23;20199;-93
2022/12/01 03:38:25;;;;;;;140.47;70.27;;;4.00;95.20;;;;;;6197084;23;20174;-92
2022/12/01 03:41:00;;;;;;;142.83;71.50;;;4.00;95.20;;;;;;6196339;23;20213;-92
2022/12/01 03:43:32;;;;;;;141.83;67.87;;;4.00;95.20;;;;;;6196508;23;20162;-92
2022/12/01 03:46:00;;;;;;;138.03;69.20;;;4.00;95.20;;;;;;6193369;23;20140;-92
2022/12/01 03:48:26;;;;;;;144.50;69.10;;;4.00;95.20;;;;;;6192719;23;20177;-92
2022/12/01 03:51:25;;;;;;;138.07;69.07;;;4.00;95.20;;;;;;6195009;23;20182;-93
2022/12/01 03:53:57;;;;;;;146.90;69.87;;;4.00;95.20;;;;;;6194377;23;20145;-92
2022/12/01 03:56:28;;;;;;;139.43;70.87;;;4.00;95.20;;;;;;6195631;23;20189;-92
2022/12/01 03:58:57;;;;;;;141.80;71.90;;;4.00;95.20;;;;;;6194421;23;20183;-93
2022/12/01 04:01:31;;;;;;;141.17;73.27;;;4.00;95.20;;;;;;6195040;23;20206;-92
2022/12/01 04:04:05;;;;;;;142.30;71.97;;;4.00;95.20;;;;;;6193573;23;20167;-92
2022/12/01 04:06:32;;;;;;;153.20;74.20;;;4.00;95.30;;;;;;6192867;23;20141;-93
2022/12/01 04:08:57;;;;;;;156.40;73.67;;;4.00;95.30;;;;;;6194732;23;20264;-93
2022/12/01 04:14:07;;;;;;;149.33;73.80;;;4.00;95.30;;;;;;6193471;23;20144;-92
2022/12/01 04:16:32;;;;;;;150.37;74.90;;;4.00;95.30;;;;;;6191915;23;20155;-92
2022/12/01 04:18:58;;;;;;;143.10;71.87;;;4.00;95.30;;;;;;6193294;23;20224;-93
2022/12/01 04:21:23;;;;;;;145.60;72.57;;;4.00;95.30;;;;;;6194429;23;20641;-93
2022/12/01 04:24:01;;;;;;;148.67;72.33;;;4.00;95.30;;;;;;6192480;23;20186;-92
2022/12/01 04:26:28;;;;;;;156.37;76.17;;;4.00;95.20;;;;;;6191817;23;20204;-92
2022/12/01 04:28:54;;;;;;;146.30;72.67;;;4.00;95.30;;;;;;6194417;23;20186;-92
2022/12/01 04:31:20;;;;;;;144.97;75.63;;;4.00;95.20;;;;;;6196572;23;20244;-93
2022/12/01 04:33:45;;;;;;;149.50;75.60;;;4.00;95.20;;;;;;6195294;23;20493;-93
2022/12/01 04:36:11;;;;;;;151.73;73.87;;;4.00;95.20;;;;;;6194986;23;20190;-93
2022/12/01 04:38:37;;;;;;;159.13;75.83;;;4.00;95.20;;;;;;6195508;23;20186;-93
2022/12/01 04:41:12;;;;;;;157.20;75.50;;;4.00;95.20;;;;;;6194962;23;20631;-92
2022/12/01 04:43:39;;;;;;;148.50;73.93;;;4.00;95.20;;;;;;6196038;23;20507;-92
2022/12/01 04:46:04;;;;;;;153.43;73.07;;;4.00;95.20;;;;;;6195769;23;20187;-92
2022/12/01 04:48:30;;;;;;;151.13;73.03;;;4.00;95.20;;;;;;6193870;23;20262;-93
2022/12/01 04:50:56;;;;;;;150.80;71.00;;;4.00;95.20;;;;;;6195616;23;20585;-93
2022/12/01 04:53:22;;;;;;;155.30;73.73;;;4.00;95.20;;;;;;6196113;23;20156;-93
2022/12/01 04:55:48;;;;;;;149.77;73.70;;;4.00;95.20;;;;;;6194073;23;20153;-93
2022/12/01 04:58:13;;;;;;;148.87;75.23;;;4.00;95.10;;;;;;6195047;23;20509;-93
2022/12/01 05:00:39;;;;;;;143.33;72.33;;;4.00;95.10;;;;;;6194990;23;20180;-92
2022/12/01 05:03:05;;;;;;;149.33;70.60;;;4.00;95.10;;;;;;6193778;23;20191;-93
2022/12/01 05:05:31;;;;;;;145.83;72.50;;;4.00;95.10;;;;;;6194862;23;20197;-93
2022/12/01 05:07:59;;;;;;;146.33;71.93;;;4.00;95.10;;;;;;6195302;23;20157;-93
2022/12/01 05:10:25;;;;;;;141.53;72.43;;;4.00;95.10;;;;;;6195492;23;20156;-92
2022/12/01 05:12:51;;;;;;;146.80;72.63;;;4.00;95.10;;;;;;6196822;23;20555;-93
2022/12/01 05:15:17;;;;;;;149.63;71.93;;;4.00;95.10;;;;;;6196310;23;20187;-92
2022/12/01 05:17:43;;;;;;;151.53;71.93;;;3.90;95.00;;;;;;6196033;23;20620;-92
2022/12/01 05:23:01;;;;;;;148.73;71.50;;;3.90;95.00;;;;;;6194750;23;20181;-92
2022/12/01 05:25:26;;;;;;;150.10;70.27;;;3.90;95.00;;;;;;6195192;23;20600;-93
2022/12/01 05:27:52;;;;;;;154.17;71.93;;;3.90;95.00;;;;;;6195539;23;20213;-93
2022/12/01 05:30:17;;;;;;;148.37;70.77;;;3.90;94.90;;;;;;6192494;23;20507;-92
2022/12/01 05:32:43;;;;;;;145.37;71.90;;;3.90;94.90;;;;;;6195502;23;20223;-92
2022/12/01 05:35:09;;;;;;;151.10;73.13;;;3.90;94.90;;;;;;6196748;23;20225;-93
2022/12/01 05:37:37;;;;;;;138.83;70.43;;;3.90;94.90;;;;;;6197722;23;20163;-92
2022/12/01 05:40:03;;;;;;;148.73;69.77;;;3.90;94.90;;;;;;6195257;23;20180;-92
2022/12/01 05:42:29;;;;;;;142.80;71.37;;;3.90;94.80;;;;;;6199180;23;20176;-93
2022/12/01 05:44:55;;;;;;;142.47;71.83;;;3.80;94.80;;;;;;6198839;23;20179;-93
2022/12/01 05:47:20;;;;;;;138.43;72.63;;;3.80;94.70;;;;;;6198059;23;20163;-92
2022/12/01 05:49:46;;;;;;;144.37;71.53;;;3.90;94.70;;;;;;6199409;23;20176;-93
2022/12/01 05:52:12;;;;;;;134.83;68.07;;;3.80;94.70;;;;;;6190836;23;20181;-93
2022/12/01 05:54:37;;;;;;;150.83;70.10;;;3.80;94.60;;;;;;6196700;23;20199;-93
2022/12/01 05:57:03;;;;;;;140.53;72.47;;;3.90;94.60;;;;;;6198100;23;20169;-92
2022/12/01 05:59:29;;;;;;;146.27;71.53;;;3.90;94.60;;;;;;6196307;23;20192;-93
2022/12/01 06:01:54;;;;;;;142.40;70.20;;;3.90;94.60;;;;;;6196729;23;20198;-93
2022/12/01 06:04:20;;;;;;;151.43;71.67;;;3.90;94.60;;;;;;6197601;23;20160;-92
2022/12/01 06:06:46;;;;;;;137.40;71.13;;;4.00;94.60;;;;;;6192563;23;20593;-92
2022/12/01 06:09:11;;;;;;;138.00;66.00;;;3.90;94.60;;;;;;6192774;23;20173;-92
2022/12/01 06:11:37;;;;;;;141.43;68.07;;;3.90;94.50;;;;;;6194511;23;20253;-92
2022/12/01 06:14:02;;;;;;;139.05;70.80;;;3.90;94.50;;;;;;6192930;23;20163;-92
2022/12/01 06:16:28;;;;;;;133.60;66.20;;;3.80;94.50;;;;;;6192082;23;20160;-93
2022/12/01 06:18:53;;;;;;;140.07;66.87;;;3.90;94.50;;;;;;6190947;23;20171;-92
2022/12/01 06:21:19;;;;;;;152.87;71.63;;;3.90;94.50;;;;;;6193551;23;20192;-93
2022/12/01 06:23:44;;;;;;;145.53;70.13;;;3.90;94.40;;;;;;6191851;23;20215;-92
2022/12/01 06:26:10;;;;;;;138.33;68.90;;;3.80;94.40;;;;;;6191843;23;20492;-93
2022/12/01 06:28:35;;;;;;;155.50;70.43;;;3.80;94.40;;;;;;6191303;23;20224;-92
2022/12/01 06:31:01;;;;;;;148.57;73.60;;;3.80;94.40;;;;;;6192267;23;20169;-93
2022/12/01 06:33:27;;;;;;;139.85;71.05;;;3.80;94.40;;;;;;6193712;23;20164;-93
2022/12/01 06:36:00;;;;;;;142.03;70.03;;;3.80;94.30;;;;;;6194633;23;20262;-93
2022/12/01 06:38:29;;;;;;;142.50;70.63;;;3.90;94.40;;;;;;6194974;23;20176;-92
2022/12/01 06:40:54;;;;;;;136.57;70.83;;;3.90;94.40;;;;;;6193749;23;20193;-92
2022/12/01 06:43:20;;;;;;;136.40;67.83;;;3.90;94.40;;;;;;6194530;23;20171;-93
2022/12/01 06:45:45;;;;;;;143.13;68.57;;;3.90;94.30;;;;;;6193326;23;20253;-93
2022/12/01 06:48:11;;;;;;;141.67;69.57;;;3.90;94.30;;;;;;6194681;23;20191;-92
2022/12/01 06:50:37;;;;;;;139.70;69.05;;;3.90;94.30;;;;;;6193208;23;20548;-92
2022/12/01 06:53:03;;;;;;;146.00;69.60;;;3.90;94.30;;;;;;6194659;23;20248;-92
2022/12/01 06:55:29;;;;;;;142.63;67.97;;;3.80;94.30;;;;;;6195006;23;20156;-92
2022/12/01 06:57:57;;;;;;;142.27;71.20;;;3.80;94.30;;;;;;6193528;23;20160;-91
2022/12/01 07:00:23;;;;;;;147.57;68.50;;;3.80;94.30;;;;;;6191021;23;20217;-91
2022/12/01 07:02:49;;;;;;;132.73;65.80;;;3.80;94.30;;;;;;6192133;23;20192;-92
2022/12/01 07:05:34;;;;;;;147.60;68.90;;;3.70;94.20;;;;;;5119388;27;20560;-92
2022/12/01 07:08:01;;;;;;;146.30;71.20;;;3.80;94.20;;;;;;5115377;28;20178;-92
2022/12/01 07:10:26;;;;;;;143.83;69.10;;;3.70;94.20;;;;;;5118010;28;20175;-92
2022/12/01 07:12:54;;;;;;;145.33;67.23;;;3.70;94.10;;;;;;5120153;28;20729;-92
2022/12/01 07:15:20;;;;;;;151.90;70.10;;;3.70;94.20;;;;;;5119344;28;20643;-92
2022/12/01 07:17:45;;;;;;;145.77;70.23;;;3.70;94.10;;;;;;5118961;28;20173;-92
2022/12/01 07:20:11;;;;;;;141.10;68.40;;;3.70;94.20;;;;;;5118762;28;20184;-92
2022/12/01 07:22:38;;;;;;;159.70;70.37;;;3.70;94.10;;;;;;5118834;28;20247;-92
2022/12/01 07:25:07;;;;;;;149.17;71.23;;;3.70;94.10;;;;;;5116910;28;20293;-92
2022/12/01 07:27:33;;;;;;;149.87;69.13;;;3.70;94.10;;;;;;5113730;28;20183;-91
2022/12/01 07:29:59;;;;;;;156.23;70.87;;;3.70;94.10;;;;;;5122302;28;20280;-92
2022/12/01 07:32:25;;;;;;;153.83;70.27;;;3.70;94.20;;;;;;5126832;28;20170;-93
2022/12/01 07:34:51;;;;;;;149.27;68.47;;;3.70;94.20;;;;;;5116533;28;20184;-92
2022/12/01 07:37:16;;;;;;;158.57;72.97;;;3.70;94.20;;;;;;5118140;28;20657;-92
2022/12/01 07:39:42;;;;;;;146.40;70.57;;;3.70;94.20;;;;;;5116850;28;20553;-92
2022/12/01 07:42:07;;;;;;;144.53;69.47;;;3.70;94.20;;;;;;5114927;28;20186;-92
2022/12/01 07:44:33;;;;;;;145.23;68.73;;;3.70;94.20;;;;;;5114434;28;20209;-92
2022/12/01 07:46:59;;;;;;;152.40;70.27;;;3.70;94.20;;;;;;5115866;28;20168;-92
2022/12/01 07:49:24;;;;;;;145.63;68.20;;;3.70;94.20;;;;;;5117165;28;20674;-92
2022/12/01 07:51:50;;;;;;;152.43;69.47;;;3.70;94.20;;;;;;5117946;28;20179;-93
2022/12/01 07:54:18;;;;;;;154.13;70.33;;;3.70;94.20;;;;;;5116239;28;20191;-92
2022/12/01 07:56:44;;;;;;;151.83;70.43;;;3.70;94.10;;;;;;5117094;28;20181;-92
2022/12/01 07:59:11;;;;;;;150.80;68.17;;;3.70;94.10;;;;;;5118197;28;20223;-93
2022/12/01 08:01:37;;;;;;;147.80;67.90;;;3.70;94.20;;;;;;5117137;28;20186;-92
2022/12/01 08:04:03;;;;;;;151.73;70.03;;;3.70;94.10;;;;;;5116178;28;20221;-92
2022/12/01 08:06:28;;;;;;;148.87;67.73;;;3.70;94.20;;;;;;5116088;28;20180;-92
2022/12/01 08:08:54;;;;;;;145.03;68.50;;;3.70;94.10;;;;;;5114556;28;20209;-92
2022/12/01 08:11:23;;;;;;;156.97;68.80;;;3.70;94.10;;;;;;5119089;28;20170;-91
2022/12/01 08:13:52;;;;;;;157.73;72.23;;;3.70;94.10;;;;;;5110494;28;20200;-90
2022/12/01 08:16:20;;;;;;;148.47;67.77;;;3.70;94.20;;;;;;5105271;28;20248;-91
2022/12/01 08:18:46;;;;;;;144.13;68.70;;;3.70;94.20;;;;;;5100650;28;20248;-93
2022/12/01 08:21:14;;;;;;;143.43;69.20;;;3.70;94.10;;;;;;5101707;28;20180;-93
2022/12/01 08:23:41;;;;;;;156.53;71.43;;;3.70;94.20;;;;;;5099649;28;20222;-92
2022/12/01 08:26:15;;;;;;;158.43;71.77;;;3.70;94.20;;;;;;5100327;28;20171;-92
2022/12/01 08:28:41;;;;;;;151.17;69.03;;;3.70;94.20;;;;;;5099109;28;20205;-92
2022/12/01 08:31:19;;;;;;;146.00;69.70;;;3.70;94.20;;;;;;5099819;28;20175;-92
2022/12/01 08:33:45;;;;;;;146.90;67.63;;;3.70;94.20;;;;;;5100538;28;20180;-92
2022/12/01 08:36:11;;;;;;;153.63;69.47;;;3.70;94.20;;;;;;5099643;28;20183;-92
2022/12/01 08:38:37;;;;;;;145.03;65.90;;;3.70;94.20;;;;;;5100446;28;20206;-93
2022/12/01 08:41:06;;;;;;;151.27;69.73;;;3.70;94.10;;;;;;5100585;28;20236;-92
2022/12/01 08:43:31;;;;;;;152.23;67.73;;;3.80;94.10;;;;;;5099812;28;20205;-92
2022/12/01 08:45:59;;;;;;;146.03;67.23;;;3.80;94.10;;;;;;5098613;28;20184;-92
2022/12/01 08:48:28;;;;;;;150.83;70.07;;;3.80;94.10;;;;;;5100497;28;20204;-93
2022/12/01 08:51:20;;;;;;;143.53;67.07;;;3.80;94.00;;;;;;5100760;28;20181;-92
2022/12/01 08:53:47;;;;;;;149.30;68.00;;;3.80;94.00;;;;;;5098553;28;20193;-92
2022/12/01 08:56:14;;;;;;;135.53;63.83;;;3.80;94.00;;;;;;5101259;28;20189;-92
2022/12/01 08:58:40;;;;;;;134.27;62.57;;;3.90;93.90;;;;;;5101027;28;20194;-92
2022/12/01 09:01:08;;;;;;;140.57;66.47;;;3.80;93.80;;;;;;5101374;28;20185;-92
2022/12/01 09:03:35;;;;;;;137.37;63.20;;;3.80;93.70;;;;;;5097723;28;20675;-90
2022/12/01 09:06:07;;;;;;;135.83;65.73;;;3.90;93.60;;;;;;5096122;28;20181;-91
2022/12/01 09:08:34;;;;;;;135.60;65.60;;;3.90;93.50;;;;;;5095826;28;20201;-91
2022/12/01 09:11:02;;;;;;;134.73;65.07;;;3.90;93.50;;;;;;5095867;28;20181;-90
2022/12/01 09:13:29;;;;;;;132.63;64.10;;;3.90;93.40;;;;;;5097532;28;20183;-91
2022/12/01 09:15:55;;;;;;;128.93;63.67;;;3.90;93.20;;;;;;5095963;28;20185;-90
2022/12/01 09:18:21;;;;;;;134.77;61.50;;;3.90;93.20;;;;;;5096658;28;20202;-91
2022/12/01 09:20:50;;;;;;;142.20;63.87;;;3.90;93.10;;;;;;5095824;28;20191;-91
2022/12/01 09:23:15;;;;;;;123.00;59.43;;;3.90;93.00;;;;;;5096112;28;20248;-90
2022/12/01 09:25:41;;;;;;;130.20;62.70;;;3.90;92.90;;;;;;5096841;28;20180;-90
2022/12/01 09:28:06;;;;;;;125.30;62.30;;;3.90;92.70;;;;;;5095320;28;20197;-91
2022/12/01 09:30:50;;;;;;;126.43;62.50;;;4.00;92.70;;;;;;5095653;28;20285;-91
2022/12/01 09:33:16;;;;;;;127.50;63.43;;;4.00;92.60;;;;;;5098408;28;20189;-92
2022/12/01 09:35:41;;;;;;;120.93;58.77;;;4.00;92.50;;;;;;5101420;28;20265;-91
2022/12/01 09:38:07;;;;;;;125.33;61.53;;;4.00;92.30;;;;;;5099311;28;20231;-92
2022/12/01 09:40:42;;;;;;;120.10;61.33;;;4.10;92.20;;;;;;5098141;28;20182;-91
2022/12/01 09:43:18;;;;;;;124.77;62.67;;;4.10;92.10;;;;;;5102491;28;20193;-92
2022/12/01 09:45:51;;;;;;;115.53;59.13;;;4.10;91.90;;;;;;5099699;28;20170;-93
2022/12/01 09:48:33;;;;;;;122.10;57.40;;;4.10;91.70;;;;;;5108881;28;20197;-92
2022/12/01 09:50:58;;;;;;;112.10;57.43;;;4.20;91.70;;;;;;5108900;28;20611;-93
2022/12/01 09:53:27;;;;;;;108.37;57.00;;;4.20;91.60;;;;;;5100404;28;20196;-91
2022/12/01 09:55:54;;;;;;;108.93;55.93;;;4.20;91.50;;;;;;5096576;28;20185;-91
2022/12/01 09:58:28;;;;;;;118.40;58.73;;;4.30;91.40;;;;;;5097492;28;20234;-92
2022/12/01 10:00:54;;;;;;;101.35;56.65;;;4.30;91.30;;;;;;5101190;28;20223;-92
2022/12/01 10:03:45;;;;;;;107.00;53.73;;;4.30;91.10;;;;;;5099708;28;20250;-92
2022/12/01 10:06:20;;;;;;;105.17;54.70;;;4.30;90.80;;;;;;5104879;28;20193;-93
2022/12/01 10:09:09;;;;;;;101.60;53.50;;;4.30;90.60;;;;;;5108254;28;20200;-91
2022/12/01 10:11:43;;;;;;;103.97;53.30;;;4.50;90.60;;;;;;5093106;28;20061;-90
2022/12/01 10:14:16;;;;;;;96.70;49.05;;;4.50;90.40;;;;;;5093983;28;20163;-90
2022/12/01 10:16:48;;;;;;;94.90;50.50;;;4.50;90.00;;;;;;5093002;28;20188;-90
2022/12/01 10:19:31;;;;;;;89.77;49.03;;;4.50;89.80;;;;;;5095507;28;20249;-91
2022/12/01 10:22:38;;;;;;;94.30;49.90;;;4.50;89.70;;;;;;5096132;28;20230;-90
2022/12/01 10:25:20;;;;;;;101.63;50.87;;;4.50;89.50;;;;;;5077465;28;20282;-91
2022/12/01 10:28:01;;;;;;;94.83;52.13;;;4.50;89.60;;;;;;5095161;28;20200;-90
2022/12/01 10:30:26;;;;;;;94.10;48.93;;;4.60;89.70;;;;;;5089996;28;20182;-91
2022/12/01 10:32:57;;;;;;;92.00;48.40;;;4.50;89.60;;;;;;5095471;28;20184;-90
2022/12/01 10:35:26;;;;;;;97.57;50.10;;;4.60;89.60;;;;;;5095953;28;20278;-90
2022/12/01 10:37:58;;;;;;;93.73;50.53;;;4.60;89.40;;;;;;5095522;28;20185;-91
2022/12/01 10:40:26;;;;;;;89.43;46.37;;;4.50;89.40;;;;;;5096924;28;20178;-91
2022/12/01 10:42:52;;;;;;;81.97;42.67;;;4.60;89.60;;;;;;5096597;28;20178;-91
2022/12/01 10:45:25;;;;;;;90.57;47.33;;;4.50;89.20;;;;;;5098943;28;20212;-91
2022/12/01 10:48:19;;;;;;;86.00;45.33;;;4.40;89.20;;;;;;5096396;28;20175;-90
2022/12/01 10:50:50;;;;;;;86.43;46.33;;;4.50;89.20;;;;;;5099331;28;20177;-92
2022/12/01 10:53:22;;;;;;;92.50;46.93;;;4.50;89.20;;;;;;5098099;28;20537;-91
2022/12/01 10:55:56;;;;;;;92.33;47.80;;;4.50;89.40;;;;;;5096239;28;20179;-91
2022/12/01 10:58:22;;;;;;;83.23;42.70;;;4.50;89.10;;;;;;5094280;28;20217;-92
2022/12/01 11:00:57;;;;;;;80.53;42.63;;;4.50;89.00;;;;;;5100470;28;20177;-91
2022/12/01 11:03:26;;;;;;;85.67;42.87;;;4.50;89.00;;;;;;5093041;28;20180;-89
2022/12/01 11:05:56;;;;;;;72.80;37.87;;;4.50;89.00;;;;;;5094058;28;20611;-88
2022/12/01 11:08:44;;;;;;;85.83;42.93;;;4.50;89.10;;;;;;5091932;28;20194;-88
2022/12/01 11:11:30;;;;;;;73.17;36.43;;;4.40;88.70;;;;;;5091598;28;20189;-89
2022/12/01 11:13:58;;;;;;;74.40;39.13;;;4.40;88.70;;;;;;5092824;28;20185;-89
2022/12/01 11:16:40;;;;;;;87.50;44.00;;;4.40;88.60;;;;;;5092527;28;20180;-89
2022/12/01 11:19:19;;;;;;;84.93;42.53;;;4.40;88.90;;;;;;5091981;28;20196;-89
2022/12/01 11:21:50;;;;;;;78.67;39.83;;;4.40;89.10;;;;;;5092760;28;20181;-89
2022/12/01 11:24:44;;;;;;;74.40;37.90;;;4.40;89.00;;;;;;5091873;28;20199;-89
2022/12/01 11:27:20;;;;;;;67.30;33.80;;;4.30;88.60;;;;;;5092186;28;20175;-90
2022/12/01 11:29:49;;;;;;;66.77;32.80;;;4.30;88.40;;;;;;5091753;28;20193;-88
2022/12/01 11:32:20;;;;;;;67.83;32.80;;;4.30;87.90;;;;;;5091711;28;20193;-88
2022/12/01 11:34:57;;;;;;;56.73;30.30;;;4.20;87.60;;;;;;5092387;28;20173;-88
2022/12/01 11:37:28;;;;;;;46.53;25.40;;;4.20;87.70;;;;;;5091758;28;20185;-88
2022/12/01 11:39:53;;;;;;;64.17;34.47;;;4.10;87.20;;;;;;5091755;28;20294;-89
2022/12/01 11:42:29;;;;;;;59.33;30.23;;;4.10;87.20;;;;;;5091672;28;20185;-88
2022/12/01 11:45:01;;;;;;;52.83;29.23;;;4.10;87.20;;;;;;5092565;28;20202;-86
2022/12/01 11:47:27;;;;;;;59.17;28.53;;;4.00;87.10;;;;;;5093942;28;20171;-87
2022/12/01 11:49:56;;;;;;;62.73;31.30;;;4.00;87.20;;;;;;5091809;28;20253;-89
2022/12/01 11:52:35;;;;;;;48.90;25.63;;;4.00;87.10;;;;;;5096963;28;20178;-91
2022/12/01 11:55:11;;;;;;;46.30;24.83;;;4.00;86.80;;;;;;5097570;28;20177;-91
2022/12/01 11:57:43;;;;;;;45.53;23.00;;;4.00;86.80;;;;;;5096804;28;20193;-91
2022/12/01 12:00:16;;;;;;;53.47;29.70;;;3.90;86.50;;;;;;5095885;28;20669;-92
2022/12/01 12:03:09;;;;;;;54.47;24.53;;;4.00;86.70;;;;;;5096563;28;20262;-91
2022/12/01 12:05:41;;;;;;;43.73;17.93;;;3.90;86.70;;;;;;5095792;28;20202;-91
2022/12/01 12:08:19;;;;;;;44.47;23.67;;;3.90;86.50;;;;;;5096761;28;20195;-92
2022/12/01 12:11:14;;;;;;;53.47;27.13;;;3.90;86.80;;;;;;5096016;28;20171;-91
2022/12/01 12:14:13;;;;;;;49.97;24.37;;;3.80;86.90;;;;;;5096194;28;20178;-92
2022/12/01 12:16:48;;;;;;;41.83;21.87;;;3.80;86.80;;;;;;5095773;28;20253;-91
2022/12/01 12:19:51;;;;;;;50.57;25.63;;;3.80;86.90;;;;;;5096813;28;20195;-92
2022/12/01 12:22:39;;;;;;;52.27;27.37;;;3.80;86.90;;;;;;5096280;28;20178;-91
2022/12/01 12:25:23;;;;;;;56.30;27.90;;;3.90;86.90;;;;;;5095844;28;20195;-92
2022/12/01 12:28:07;;;;;;;50.10;26.93;;;3.90;86.90;;;;;;5097051;28;20168;-91
2022/12/01 12:30:45;;;;;;;44.90;22.97;;;3.80;87.00;;;;;;5096142;28;20172;-91
2022/12/01 12:33:32;;;;;;;52.00;29.17;;;3.80;86.60;;;;;;5096032;28;20162;-92
2022/12/01 12:36:22;;;;;;;48.70;24.07;;;3.70;86.60;;;;;;5095666;28;20676;-91
2022/12/01 12:39:09;;;;;;;52.57;26.20;;;3.80;86.80;;;;;;5096049;28;20195;-91
2022/12/01 12:41:43;;;;;;;54.47;27.50;;;3.70;86.70;;;;;;5095898;28;20614;-91
2022/12/01 12:44:25;;;;;;;49.73;24.70;;;3.70;86.80;;;;;;5096246;28;20195;-91
2022/12/01 12:47:16;;;;;;;49.13;27.60;;;3.70;86.50;;;;;;5096057;28;20314;-91
2022/12/01 12:50:19;;;;;;;55.17;28.40;;;3.70;86.90;;;;;;5095375;28;20266;-92
2022/12/01 12:52:48;;;;;;;54.93;28.10;;;3.80;87.10;;;;;;5095925;28;20665;-91
2022/12/01 12:55:29;;;;;;;53.10;27.00;;;3.70;87.00;;;;;;5096236;28;20176;-92
2022/12/01 12:58:04;;;;;;;51.10;26.53;;;3.70;87.30;;;;;;5095077;28;20174;-91
2022/12/01 13:00:30;;;;;;;50.97;25.93;;;3.70;87.40;;;;;;5096125;28;20254;-91
2022/12/01 13:03:28;;;;;;;53.23;27.43;;;3.70;87.60;;;;;;5095296;28;20671;-91
2022/12/01 13:06:04;;;;;;;56.50;28.43;;;3.70;87.60;;;;;;5089938;28;20209;-91
2022/12/01 13:08:44;;;;;;;53.00;23.23;;;3.60;87.50;;;;;;5095764;28;20202;-91
2022/12/01 13:11:25;;;;;;;56.37;27.70;;;3.50;87.20;;;;;;5095870;28;20174;-91
2022/12/01 13:14:12;;;;;;;60.53;28.13;;;3.50;87.40;;;;;;5096077;28;20263;-92
2022/12/01 13:16:44;;;;;;;58.33;27.93;;;3.60;87.60;;;;;;5096118;28;20194;-92